Latest Coastal Weather Observations for Yamba

IDN60701

Issued at 7:15 am EDT Tuesday 25 November 2014 (issued every 10 minutes, with the page automatically refreshed every 10 minutes)

About coastal observations | Map of coastal stations | Coastal observations for NSW | Marine services | Other Formats
Station Details ID: 058012 Name: YAMBA PILOT STATION Lat: -29.43 Lon: 153.36 Height: 27.4 m
Data from the previous 72 hours. | See also: Recent months at Yamba
Date/Time
EDT
Temp

°C
Wind Pressure Rain
since 9am
mm
Weather Cloud Vis
km
Sea
Height
m
Swell
Dir
 
Speed
knots
Gust
knots
hPa Trend Height
m
Period
s
Dir
25/07:00am 21.4 N 6 8 1012.7 - 0.0 - - - - - - -
25/06:30am 21.0 N 3 5 1012.7 - 0.0 - - - - - - -
25/06:00am 20.6 N 4 7 1012.2 - 0.0 - - - - - - -
25/05:30am 20.5 NNW 3 4 1012.2 - 0.0 - - - - - - -
25/05:00am 20.5 N 4 6 1011.7 - 0.0 - - - - - - -
25/04:30am 20.5 N 3 5 1011.5 - 0.0 - - - - - - -
25/04:00am 20.7 N 5 8 1011.2 - 0.0 - - - - - - -
25/03:30am 20.9 N 4 5 1011.3 - 0.0 - - - - - - -
25/03:00am 21.2 WNW 5 8 1011.6 - 0.0 - - - - - - -
25/02:30am 20.9 N 6 9 1011.4 - 0.0 - - - - - - -
25/02:00am 20.7 N 8 11 1010.9 - 0.0 - - - - - - -
25/01:30am 20.8 N 7 11 1011.2 - 0.0 - - - - - - -
25/01:00am 20.9 N 7 12 1011.5 - 0.0 - - - - - - -
25/12:30am 21.0 N 8 14 1011.7 - 0.0 - - - - - - -
25/12:00am 21.1 N 8 13 1011.8 - 0.0 - - - - - - -
 
Date/Time
EDT
Temp

°C
Wind Pressure Rain
since 9am
mm
Weather Cloud Vis
km
Sea
Height
m
Swell
Dir
 
Speed
knots
Gust
knots
hPa Trend Height
m
Period
s
Dir
24/11:30pm 21.1 N 8 14 1011.8 - 0.0 - - - - - - -
24/11:00pm 21.1 N 9 17 1011.6 - 0.0 - - - - - - -
24/10:30pm 21.2 N 9 15 1012.1 - 0.0 - - - - - - -
24/10:00pm 21.1 N 10 17 1011.6 - 0.0 - - - - - - -
24/09:30pm 21.1 N 10 17 1011.2 - 0.0 - - - - - - -
24/09:00pm 21.2 N 11 18 1010.5 - 0.0 - - - - - - -
24/08:30pm 21.3 N 10 17 1010.3 - 0.0 - - - - - - -
24/08:00pm 21.6 N 10 17 1010.2 - 0.0 - - - - - - -
24/07:30pm 21.8 N 10 16 1009.9 - 0.0 - - - - - - -
24/07:00pm 22.2 N 11 17 1009.5 - 0.0 - - - - - - -
24/06:30pm 23.0 N 11 21 1009.3 - 0.0 - - - - - - -
24/06:00pm 23.8 N 11 18 1009.2 - 0.0 - - - - - - -
24/05:30pm 24.5 N 11 22 1009.4 - 0.0 - - - - - - -
24/05:00pm 25.3 N 11 20 1009.7 - 0.0 - - - - - - -
24/04:30pm 24.7 N 10 18 1009.9 - 0.0 - - - - - - -
24/04:00pm 24.0 N 10 15 1010.5 - 0.0 - - - - - - -
24/03:30pm 24.3 N 10 21 1011.0 - 0.0 - - - - - - -
24/03:00pm 24.5 N 9 18 1011.5 F 0.0 Fine Mostly cloudy 40 3 2.0 7 NE
24/02:30pm 24.5 N 8 14 1012.0 - 0.0 - - - - - - -
24/02:00pm 24.9 N 8 13 1012.4 - 0.0 - - - - - - -
24/01:30pm 27.1 N 8 15 1012.8 - 0.0 - - - - - - -
24/01:00pm 27.1 N 8 14 1013.2 - 0.0 - - - - - - -
24/12:30pm 26.5 N 7 13 1013.7 - 0.0 - - - - - - -
24/12:00pm 27.7 N 9 15 1014.0 - 0.0 - - - - - - -
24/11:30am 27.4 N 8 13 1014.7 - 0.0 - - - - - - -
24/11:00am 26.6 N 6 9 1015.1 - 0.0 - - - - - - -
24/10:30am 26.6 N 6 11 1015.2 - 0.0 - - - - - - -
24/10:00am 26.2 N 6 9 1015.5 - 0.0 - - - - - - -
24/09:30am 25.2 N 6 9 1015.6 - 0.0 - - - - - - -
24/09:00am 24.8 N 5 8 1015.7 R 0.0 Fine Mostly cloudy 40 2 1.5 7 NE
24/08:30am 24.0 N 5 8 1016.2 - 0.0 - - - - - - -
24/08:00am 23.2 N 6 10 1016.1 - 0.0 - - - - - - -
24/07:30am 22.5 N 7 12 1015.8 - 0.0 - - - - - - -
24/07:00am 21.7 N 7 11 1015.6 - 0.0 - - - - - - -
24/06:30am 21.1 N 7 10 1015.2 - 0.0 - - - - - - -
24/06:00am 20.8 N 6 11 1014.9 - 0.0 - - - - - - -
24/05:30am 20.8 N 6 10 1015.1 - 0.0 - - - - - - -
24/05:00am 20.9 N 6 11 1014.7 - 0.0 - - - - - - -
24/04:30am 20.9 N 5 8 1014.6 - 0.0 - - - - - - -
24/04:00am 21.0 N 6 9 1014.7 - 0.0 - - - - - - -
24/03:30am 21.2 N 7 11 1014.5 - 0.0 - - - - - - -
24/03:00am 21.3 N 7 13 1013.9 - 0.0 - - - - - - -
24/02:30am 21.4 N 8 15 1013.9 - 0.0 - - - - - - -
24/02:00am 21.4 N 8 13 1014.0 - 0.0 - - - - - - -
24/01:30am 21.5 N 8 15 1014.1 - 0.0 - - - - - - -
24/01:00am 21.7 N 8 14 1014.5 - 0.0 - - - - - - -
24/12:30am 21.8 N 8 14 1014.6 - 0.0 - - - - - - -
24/12:00am 21.8 N 7 14 1014.5 - 0.0 - - - - - - -
 
Date/Time
EDT
Temp

°C
Wind Pressure Rain
since 9am
mm
Weather Cloud Vis
km
Sea
Height
m
Swell
Dir
 
Speed
knots
Gust
knots
hPa Trend Height
m
Period
s
Dir
23/11:30pm 21.9 N 6 9 1014.9 - 0.0 - - - - - - -
23/11:00pm 21.9 N 6 11 1014.8 - 0.0 - - - - - - -
23/10:30pm 21.8 N 6 13 1014.5 - 0.0 - - - - - - -
23/10:00pm 21.9 N 7 12 1014.0 - 0.0 - - - - - - -
23/09:30pm 22.0 N 7 13 1014.0 - 0.0 - - - - - - -
23/09:00pm 22.1 N 6 9 1014.3 - 0.0 - - - - - - -
23/08:30pm 22.2 N 5 8 1014.5 - 0.0 - - - - - - -
23/08:00pm 22.2 N 7 10 1014.4 - 0.0 - - - - - - -
23/07:58pm 22.2 N 7 10 1014.4 - 0.0 - - - - - - -
23/07:30pm 22.4 N 7 11 1013.1 - 0.0 - - - - - - -
23/07:00pm 22.6 N 7 12 1012.3 - 0.0 - - - - - - -
23/06:30pm 22.8 N 6 11 1011.9 - 0.0 - - - - - - -
23/06:00pm 22.9 N 7 11 1011.4 - 0.0 - - - - - - -
23/05:30pm 23.1 N 8 14 1011.2 - 0.0 - - - - - - -
23/05:00pm 23.1 N 9 14 1011.3 - 0.0 - - - - - - -
23/04:30pm 23.7 N 9 17 1011.6 - 0.0 - - - - - - -
23/04:00pm 24.0 N 9 15 1011.8 - 0.0 - - - - - - -
23/03:30pm 24.7 N 9 16 1011.6 - 0.0 - - - - - - -
23/03:00pm 25.3 N 9 17 1012.0 F 0.0 Haze Mostly cloudy 20 3 2.0 7 NE
23/02:30pm 25.8 N 10 18 1012.2 - 0.0 - - - - - - -
23/02:00pm 27.2 N 11 18 1012.3 - 0.0 - - - - - - -
23/01:30pm 27.9 N 11 19 1012.6 - 0.0 - - - - - - -
23/01:00pm 27.9 N 10 17 1013.1 - 0.0 - - - - - - -
23/12:30pm 28.2 N 9 14 1013.9 - 0.0 - - - - - - -
23/12:00pm 28.1 N 8 13 1014.2 - 0.0 - - - - - - -
23/11:30am 28.1 N 7 10 1015.0 - 0.0 - - - - - - -
23/11:00am 27.2 N 7 13 1015.2 - 0.0 - - - - - - -
23/10:30am 27.2 N 6 10 1015.4 - 0.0 - - - - - - -
23/10:00am 27.1 N 6 9 1015.7 - 0.0 - - - - - - -
23/09:30am 25.9 N 7 10 1015.9 - 0.0 - - - - - - -
23/09:00am 25.9 N 6 9 1015.6 R 0.0 Haze Mostly clear 20 1 1.5 7 NE
23/08:30am 24.8 N 5 9 1015.8 - 0.0 - - - - - - -
23/08:00am 24.0 N 6 11 1015.7 - 0.0 - - - - - - -
23/07:30am 23.1 N 5 8 1015.5 - 0.0 - - - - - - -
23/07:00am 22.5 N 3 5 1015.4 - 0.0 - - - - - - -
23/06:30am 22.0 NNW 4 5 1015.4 - 0.0 - - - - - - -
23/06:00am 21.6 NNW 4 5 1014.8 - 0.0 - - - - - - -
23/05:30am 21.5 N 5 7 1014.6 - 0.0 - - - - - - -
23/05:00am 21.3 N 4 6 1013.9 - 0.0 - - - - - - -
23/04:30am 21.5 N 4 7 1013.7 - 0.0 - - - - - - -
23/04:00am 21.6 N 4 6 1013.3 - 0.0 - - - - - - -
23/03:30am 21.9 N 3 4 1013.4 - 0.0 - - - - - - -
23/03:00am 21.8 NW 2 4 1013.4 - 0.0 - - - - - - -
23/02:30am 21.9 CALM 0 3 1013.7 - 0.0 - - - - - - -
23/02:00am 21.8 NW 1 4 1013.8 - 0.0 - - - - - - -
23/01:30am 22.0 NW 2 4 1014.0 - 0.0 - - - - - - -
23/01:00am 22.3 CALM 0 3 1014.1 - 0.0 - - - - - - -
23/12:30am 22.6 WNW 5 6 1014.4 - 0.0 - - - - - - -
23/12:00am 22.3 NW 3 5 1014.2 - 0.0 - - - - - - -
 
Date/Time
EDT
Temp

°C
Wind Pressure Rain
since 9am
mm
Weather Cloud Vis
km
Sea
Height
m
Swell
Dir
 
Speed
knots
Gust
knots
hPa Trend Height
m
Period
s
Dir
22/11:30pm 22.2 WNW 6 7 1014.2 - 0.0 - - - - - - -
22/11:00pm 21.9 N 3 5 1014.1 - 0.0 - - - - - - -
22/10:30pm 22.0 N 4 7 1014.0 - 0.0 - - - - - - -
22/10:00pm 22.1 N 5 8 1013.6 - 0.0 - - - - - - -
22/09:30pm 22.2 N 6 9 1013.6 - 0.0 - - - - - - -
22/09:00pm 22.4 N 6 10 1013.1 - 0.0 - - - - - - -
22/08:30pm 22.5 N 6 9 1012.7 - 0.0 - - - - - - -
22/08:00pm 22.6 N 6 9 1012.5 - 0.0 - - - - - - -
22/07:30pm 22.8 NNE 6 9 1012.2 - 0.0 - - - - - - -
22/07:00pm 23.2 NNE 5 7 1011.7 - 0.0 - - - - - - -
22/06:30pm 23.7 NNE 5 7 1011.6 - 0.0 - - - - - - -
22/06:00pm 24.0 E 6 9 1011.0 - 0.0 - - - - - - -
22/05:30pm 24.7 ESE 6 7 1011.1 - 0.0 - - - - - - -
22/05:00pm 24.8 ESE 6 9 1010.9 - 0.0 - - - - - - -
22/04:30pm 24.5 ESE 6 7 1011.1 - 0.0 - - - - - - -
22/04:00pm 25.3 ESE 7 8 1011.4 - 0.0 - - - - - - -
22/03:30pm 25.9 ESE 7 9 1011.4 - 0.0 - - - - - - -
22/03:00pm 26.2 ESE 10 13 1011.7 F 0.0 Haze Mostly cloudy 15 1 1.5 7 NE
22/02:30pm 26.0 ESE 12 15 1012.3 - 0.0 - - - - - - -
22/02:00pm 25.6 SE 13 17 1012.4 - 0.0 - - - - - - -
22/01:30pm 26.2 SE 14 17 1012.9 - 0.0 - - - - - - -
22/01:00pm 25.7 SE 15 19 1013.1 - 0.0 - - - - - - -
22/12:30pm 25.4 SE 16 19 1013.3 - 0.0 - - - - - - -
22/12:00pm 25.4 SE 16 19 1013.3 - 0.0 - - - - - - -
22/11:30am 25.4 SE 16 20 1013.5 - 0.0 - - - - - - -
22/11:00am 25.5 SSE 15 19 1013.7 - 0.0 - - - - - - -
22/10:35am 25.1 SSE 15 21 1013.8 - 0.0 - - - - - - -
22/10:30am 25.5 SSE 13 19 1013.8 - 0.0 - - - - - - -
22/10:00am 25.8 SE 10 13 1013.8 - 0.0 - - - - - - -
22/09:30am 26.0 NNE 4 7 1013.5 - 0.0 - - - - - - -
22/09:00am 25.8 N 4 6 1013.2 R 0.0 Haze Mostly clear 20 1 1.5 7 NE
22/08:30am 25.1 N 5 8 1013.0 - 0.0 - - - - - - -
22/08:00am 24.0 N 5 8 1012.6 - 0.0 - - - - - - -
22/07:30am 23.4 N 4 8 1012.3 - 0.0 - - - - - - -

Other Formats:

Comma delimited format used in spreadsheet applications
http://www.bom.gov.au/fwo/IDN60701/IDN60701.94589.axf

JavaScript Object Notation format (JSON) in row-major order
http://www.bom.gov.au/fwo/IDN60701/IDN60701.94589.json